TAR472 LIPZ-DTTA
Flight info
| Callsign | TAR472 |
|---|---|
| Flight time | 1h 27m |
| Altitude | 19000 |
| Route | CHI N503 LOBSI/N0431F390 DCT PIDEP DCT RONAB DCT SUSIP/N0361F240 B979 ICANI UB979 TUC |
| Aircraft | A20N/M-SDE2E3FGHIRWXY/LB1 |
Departure
| Time | 2026-05-04 04:20 |
|---|---|
| Airport | Venice Marco Polo Airport (LIPZ) |
Arrival
| Time | 2026-05-04 05:47 |
|---|---|
| Airport | Tunis Carthage International Airport (DTTA) |
| Time | Latitude | Longitude | Altitude | Speed | Heading |
|---|---|---|---|---|---|
| 2026-05-04 04:07 | 45.50183 | 12.34063 | 19 ft | 0 kts | 312° |
| 2026-05-04 04:12 | 45.50171 | 12.34083 | 21 ft | 4 kts | 308° |
| 2026-05-04 04:13 | 45.50155 | 12.34114 | 21 ft | 4 kts | 297° |
| 2026-05-04 04:13 | 45.50147 | 12.34149 | 19 ft | 4 kts | 263° |
| 2026-05-04 04:13 | 45.50152 | 12.34169 | 19 ft | 0 kts | 220° |
| 2026-05-04 04:17 | 45.50149 | 12.34165 | 19 ft | 4 kts | 220° |
| 2026-05-04 04:17 | 45.50097 | 12.34101 | 19 ft | 12 kts | 221° |
| 2026-05-04 04:18 | 45.50012 | 12.33990 | 18 ft | 21 kts | 221° |
| 2026-05-04 04:18 | 45.49900 | 12.33849 | 18 ft | 22 kts | 221° |
| 2026-05-04 04:18 | 45.49789 | 12.33706 | 19 ft | 21 kts | 221° |
| 2026-05-04 04:18 | 45.49664 | 12.33602 | 20 ft | 21 kts | 221° |
| 2026-05-04 04:19 | 45.49554 | 12.33543 | 20 ft | 18 kts | 138° |
| 2026-05-04 04:19 | 45.49469 | 12.33669 | 19 ft | 18 kts | 132° |
| 2026-05-04 04:19 | 45.49462 | 12.33843 | 18 ft | 35 kts | 42° |
| 2026-05-04 04:19 | 45.49833 | 12.34306 | 16 ft | 105 kts | 41° |
| 2026-05-04 04:20 | 45.50514 | 12.35207 | 160 ft | 147 kts | 44° |
| 2026-05-04 04:20 | 45.51236 | 12.36239 | 804 ft | 148 kts | 45° |
| 2026-05-04 04:20 | 45.51983 | 12.37282 | 1367 ft | 164 kts | 44° |
| 2026-05-04 04:20 | 45.52805 | 12.38635 | 1739 ft | 196 kts | 60° |
| 2026-05-04 04:21 | 45.53091 | 12.40632 | 2058 ft | 224 kts | 99° |
| 2026-05-04 04:21 | 45.52309 | 12.42684 | 2395 ft | 252 kts | 141° |
| 2026-05-04 04:21 | 45.50698 | 12.43644 | 3176 ft | 256 kts | 178° |
| 2026-05-04 04:21 | 45.48958 | 12.43209 | 4128 ft | 255 kts | 201° |
| 2026-05-04 04:22 | 45.47338 | 12.42130 | 5092 ft | 259 kts | 208° |
| 2026-05-04 04:22 | 45.45742 | 12.40898 | 6071 ft | 262 kts | 208° |
| 2026-05-04 04:22 | 45.44095 | 12.39724 | 7070 ft | 266 kts | 206° |
| 2026-05-04 04:22 | 45.42384 | 12.38685 | 8085 ft | 269 kts | 202° |
| 2026-05-04 04:23 | 45.40610 | 12.37770 | 9103 ft | 273 kts | 200° |
| 2026-05-04 04:23 | 45.38789 | 12.36945 | 10085 ft | 276 kts | 199° |
| 2026-05-04 04:23 | 45.36928 | 12.36164 | 10667 ft | 293 kts | 198° |
| 2026-05-04 04:23 | 45.35566 | 12.35610 | 10923 ft | 309 kts | 197° |
| 2026-05-04 04:24 | 45.32746 | 12.34478 | 11826 ft | 323 kts | 197° |
| 2026-05-04 04:24 | 45.30559 | 12.33601 | 12694 ft | 328 kts | 197° |
| 2026-05-04 04:24 | 45.28348 | 12.32708 | 13599 ft | 333 kts | 197° |
| 2026-05-04 04:24 | 45.26110 | 12.31798 | 14420 ft | 337 kts | 197° |
| 2026-05-04 04:25 | 45.24604 | 12.31182 | 14950 ft | 340 kts | 197° |
| 2026-05-04 04:25 | 45.22314 | 12.30244 | 15740 ft | 345 kts | 197° |
| 2026-05-04 04:25 | 45.19993 | 12.29291 | 16536 ft | 350 kts | 197° |
| 2026-05-04 04:25 | 45.17641 | 12.28326 | 17334 ft | 354 kts | 197° |
| 2026-05-04 04:26 | 45.15252 | 12.27346 | 18119 ft | 359 kts | 197° |
| 2026-05-04 04:26 | 45.12839 | 12.26357 | 18803 ft | 363 kts | 197° |
| 2026-05-04 04:26 | 45.10392 | 12.25355 | 19432 ft | 369 kts | 197° |
| 2026-05-04 04:26 | 45.07906 | 12.24338 | 20042 ft | 374 kts | 197° |
| 2026-05-04 04:27 | 45.05392 | 12.23311 | 20695 ft | 378 kts | 197° |
| 2026-05-04 04:27 | 45.02875 | 12.22284 | 21345 ft | 382 kts | 197° |
| 2026-05-04 04:27 | 45.00308 | 12.21237 | 21989 ft | 386 kts | 198° |
| 2026-05-04 04:27 | 44.97704 | 12.20177 | 22627 ft | 390 kts | 198° |
| 2026-05-04 04:28 | 44.95076 | 12.19107 | 23248 ft | 395 kts | 198° |
| 2026-05-04 04:28 | 44.92403 | 12.18087 | 23806 ft | 400 kts | 194° |
| 2026-05-04 04:28 | 44.89637 | 12.17536 | 24298 ft | 405 kts | 186° |
| 2026-05-04 04:28 | 44.86802 | 12.17394 | 24816 ft | 409 kts | 183° |
| 2026-05-04 04:29 | 44.83937 | 12.17411 | 25316 ft | 412 kts | 181° |
| 2026-05-04 04:29 | 44.81051 | 12.17519 | 25805 ft | 415 kts | 180° |
| 2026-05-04 04:29 | 44.78182 | 12.17666 | 26282 ft | 418 kts | 180° |
| 2026-05-04 04:29 | 44.75269 | 12.17824 | 26743 ft | 421 kts | 180° |
| 2026-05-04 04:30 | 44.72329 | 12.17977 | 27195 ft | 424 kts | 180° |
| 2026-05-04 04:30 | 44.69380 | 12.18121 | 27655 ft | 426 kts | 181° |
| 2026-05-04 04:30 | 44.66401 | 12.18257 | 28060 ft | 429 kts | 181° |
| 2026-05-04 04:30 | 44.63397 | 12.18386 | 28462 ft | 433 kts | 181° |
| 2026-05-04 04:31 | 44.60384 | 12.18512 | 28899 ft | 435 kts | 181° |
| 2026-05-04 04:31 | 44.57345 | 12.18638 | 29332 ft | 437 kts | 181° |
| 2026-05-04 04:31 | 44.54299 | 12.18764 | 29743 ft | 440 kts | 181° |
| 2026-05-04 04:31 | 44.51232 | 12.18890 | 30154 ft | 442 kts | 181° |
| 2026-05-04 04:32 | 44.48152 | 12.19018 | 30505 ft | 444 kts | 181° |
| 2026-05-04 04:32 | 44.45052 | 12.19146 | 30849 ft | 445 kts | 181° |
| 2026-05-04 04:32 | 44.41942 | 12.19275 | 31199 ft | 447 kts | 181° |
| 2026-05-04 04:32 | 44.38831 | 12.19405 | 31604 ft | 447 kts | 181° |
| 2026-05-04 04:33 | 44.35770 | 12.19533 | 32076 ft | 444 kts | 181° |
| 2026-05-04 04:33 | 44.32684 | 12.19663 | 32557 ft | 442 kts | 181° |
| 2026-05-04 04:33 | 44.29616 | 12.19791 | 32982 ft | 441 kts | 181° |
| 2026-05-04 04:33 | 44.26553 | 12.19918 | 33409 ft | 439 kts | 181° |
| 2026-05-04 04:34 | 44.23506 | 12.20044 | 33833 ft | 438 kts | 181° |
| 2026-05-04 04:34 | 44.20454 | 12.20169 | 34235 ft | 437 kts | 181° |
| 2026-05-04 04:34 | 44.17424 | 12.20294 | 34559 ft | 436 kts | 181° |
| 2026-05-04 04:34 | 44.14392 | 12.20418 | 34871 ft | 435 kts | 181° |
| 2026-05-04 04:35 | 44.11366 | 12.20541 | 35065 ft | 437 kts | 181° |
| 2026-05-04 04:35 | 44.08307 | 12.20665 | 35105 ft | 437 kts | 181° |
| 2026-05-04 04:35 | 44.02244 | 12.20914 | 35109 ft | 436 kts | 181° |
| 2026-05-04 04:36 | 43.96185 | 12.21162 | 35113 ft | 435 kts | 181° |
| 2026-05-04 04:36 | 43.90124 | 12.21409 | 35122 ft | 436 kts | 182° |
| 2026-05-04 04:37 | 43.78049 | 12.21417 | 35144 ft | 433 kts | 187° |
| 2026-05-04 04:38 | 43.72029 | 12.20923 | 35151 ft | 433 kts | 187° |
| 2026-05-04 04:38 | 43.66012 | 12.20381 | 35151 ft | 433 kts | 187° |
| 2026-05-04 04:39 | 43.59989 | 12.19842 | 35158 ft | 433 kts | 187° |
| 2026-05-04 04:39 | 43.53959 | 12.19311 | 35164 ft | 434 kts | 187° |
| 2026-05-04 04:40 | 43.47936 | 12.18786 | 35170 ft | 434 kts | 187° |
| 2026-05-04 04:40 | 43.41940 | 12.18266 | 35170 ft | 434 kts | 187° |
| 2026-05-04 04:41 | 43.35911 | 12.17743 | 35170 ft | 434 kts | 187° |
| 2026-05-04 04:41 | 43.29883 | 12.17222 | 35173 ft | 433 kts | 187° |
| 2026-05-04 04:42 | 43.23855 | 12.16700 | 35176 ft | 433 kts | 187° |
| 2026-05-04 04:42 | 43.17839 | 12.16181 | 35169 ft | 433 kts | 187° |
| 2026-05-04 04:43 | 43.11865 | 12.15667 | 35176 ft | 432 kts | 187° |
| 2026-05-04 04:43 | 43.05862 | 12.15152 | 35176 ft | 432 kts | 187° |
| 2026-05-04 04:44 | 42.99857 | 12.14637 | 35181 ft | 432 kts | 187° |
| 2026-05-04 04:44 | 42.93852 | 12.14123 | 35180 ft | 431 kts | 187° |
| 2026-05-04 04:45 | 42.87865 | 12.13612 | 35181 ft | 431 kts | 187° |
| 2026-05-04 04:47 | 42.66962 | 12.11834 | 35178 ft | 431 kts | 187° |
| 2026-05-04 04:47 | 42.60985 | 12.11328 | 35176 ft | 430 kts | 187° |
| 2026-05-04 04:48 | 42.54995 | 12.10822 | 35175 ft | 430 kts | 187° |
| 2026-05-04 04:49 | 42.40039 | 12.09561 | 35173 ft | 430 kts | 187° |
| 2026-05-04 04:49 | 42.34097 | 12.09063 | 35167 ft | 430 kts | 187° |
| 2026-05-04 04:50 | 42.28131 | 12.08563 | 35167 ft | 429 kts | 187° |
| 2026-05-04 04:50 | 42.22168 | 12.08064 | 35164 ft | 429 kts | 187° |
| 2026-05-04 04:51 | 42.16198 | 12.07566 | 35201 ft | 429 kts | 187° |
| 2026-05-04 04:51 | 42.10233 | 12.07069 | 35216 ft | 429 kts | 187° |
| 2026-05-04 04:52 | 42.04305 | 12.06576 | 35231 ft | 429 kts | 187° |
| 2026-05-04 04:52 | 41.98341 | 12.06081 | 35237 ft | 429 kts | 187° |
| 2026-05-04 04:53 | 41.92380 | 12.05587 | 35238 ft | 429 kts | 187° |
| 2026-05-04 04:53 | 41.86410 | 12.05093 | 35234 ft | 429 kts | 187° |
| 2026-05-04 04:54 | 41.80439 | 12.04600 | 35218 ft | 430 kts | 187° |
| 2026-05-04 04:54 | 41.74476 | 12.04108 | 35200 ft | 429 kts | 187° |
| 2026-05-04 04:55 | 41.68509 | 12.03617 | 35181 ft | 429 kts | 187° |
| 2026-05-04 04:55 | 41.62548 | 12.03129 | 35162 ft | 429 kts | 187° |
| 2026-05-04 04:56 | 41.56624 | 12.02644 | 35154 ft | 429 kts | 187° |
| 2026-05-04 04:56 | 41.50657 | 12.02156 | 35154 ft | 430 kts | 187° |
| 2026-05-04 04:57 | 41.44683 | 12.01668 | 35154 ft | 430 kts | 187° |
| 2026-05-04 04:57 | 41.38714 | 12.01182 | 35156 ft | 429 kts | 187° |
| 2026-05-04 04:58 | 41.32743 | 12.00696 | 35155 ft | 430 kts | 187° |
| 2026-05-04 04:58 | 41.26787 | 12.00212 | 35154 ft | 431 kts | 187° |
| 2026-05-04 04:59 | 41.20790 | 11.99726 | 35156 ft | 432 kts | 187° |
| 2026-05-04 04:59 | 41.14787 | 11.99241 | 35147 ft | 432 kts | 187° |
| 2026-05-04 05:00 | 41.08784 | 11.98755 | 35157 ft | 433 kts | 187° |
| 2026-05-04 05:01 | 40.99797 | 11.98031 | 35160 ft | 433 kts | 187° |
| 2026-05-04 05:01 | 40.93787 | 11.97550 | 35157 ft | 433 kts | 187° |
| 2026-05-04 05:02 | 40.87768 | 11.97067 | 35156 ft | 434 kts | 187° |
| 2026-05-04 05:02 | 40.81734 | 11.96584 | 35159 ft | 434 kts | 187° |
| 2026-05-04 05:03 | 40.75703 | 11.96102 | 35156 ft | 434 kts | 187° |
| 2026-05-04 05:04 | 40.63605 | 11.95137 | 35157 ft | 436 kts | 188° |
| 2026-05-04 05:04 | 40.57574 | 11.94658 | 35157 ft | 437 kts | 188° |
| 2026-05-04 05:06 | 40.33173 | 11.92727 | 35157 ft | 441 kts | 188° |
| 2026-05-04 05:07 | 40.27039 | 11.92245 | 35153 ft | 442 kts | 189° |
| 2026-05-04 05:07 | 40.20859 | 11.91756 | 35156 ft | 446 kts | 189° |
| 2026-05-04 05:09 | 39.92959 | 11.89576 | 35147 ft | 447 kts | 189° |
| 2026-05-04 05:10 | 39.86791 | 11.88832 | 35153 ft | 440 kts | 198° |
| 2026-05-04 05:10 | 39.80849 | 11.86929 | 35156 ft | 440 kts | 201° |
| 2026-05-04 05:11 | 39.74942 | 11.84783 | 35152 ft | 441 kts | 202° |
| 2026-05-04 05:11 | 39.70038 | 11.82966 | 35149 ft | 441 kts | 201° |
| 2026-05-04 05:12 | 39.64136 | 11.80798 | 35142 ft | 441 kts | 202° |
| 2026-05-04 05:12 | 39.58211 | 11.78642 | 35154 ft | 443 kts | 202° |
| 2026-05-04 05:13 | 39.52249 | 11.76484 | 35149 ft | 444 kts | 202° |
| 2026-05-04 05:13 | 39.46327 | 11.74346 | 35147 ft | 444 kts | 202° |
| 2026-05-04 05:14 | 39.40374 | 11.72200 | 35147 ft | 445 kts | 202° |
| 2026-05-04 05:14 | 39.34393 | 11.70045 | 35144 ft | 446 kts | 202° |
| 2026-05-04 05:15 | 39.28408 | 11.67894 | 35144 ft | 446 kts | 202° |
| 2026-05-04 05:15 | 39.22431 | 11.65752 | 35143 ft | 444 kts | 202° |
| 2026-05-04 05:16 | 39.16479 | 11.63620 | 35144 ft | 445 kts | 202° |
| 2026-05-04 05:16 | 39.10499 | 11.61479 | 35143 ft | 446 kts | 202° |
| 2026-05-04 05:17 | 39.04559 | 11.59359 | 35138 ft | 446 kts | 202° |
| 2026-05-04 05:17 | 38.98577 | 11.57228 | 35131 ft | 446 kts | 203° |
| 2026-05-04 05:18 | 38.92586 | 11.55097 | 35137 ft | 447 kts | 203° |
| 2026-05-04 05:18 | 38.86580 | 11.52964 | 35134 ft | 447 kts | 203° |
| 2026-05-04 05:19 | 38.80618 | 11.50852 | 35135 ft | 447 kts | 203° |
| 2026-05-04 05:19 | 38.74613 | 11.48727 | 35138 ft | 448 kts | 203° |
| 2026-05-04 05:20 | 38.68592 | 11.46599 | 35133 ft | 449 kts | 203° |
| 2026-05-04 05:20 | 38.62559 | 11.44473 | 35132 ft | 449 kts | 203° |
| 2026-05-04 05:21 | 38.56542 | 11.42356 | 35120 ft | 449 kts | 203° |
| 2026-05-04 05:21 | 38.50507 | 11.40235 | 35128 ft | 450 kts | 203° |
| 2026-05-04 05:22 | 38.44471 | 11.38118 | 35126 ft | 450 kts | 203° |
| 2026-05-04 05:22 | 38.41454 | 11.37062 | 34950 ft | 449 kts | 203° |
| 2026-05-04 05:22 | 38.38476 | 11.36020 | 34713 ft | 449 kts | 203° |
| 2026-05-04 05:23 | 38.35465 | 11.34966 | 34471 ft | 450 kts | 203° |
| 2026-05-04 05:23 | 38.32436 | 11.33907 | 34221 ft | 451 kts | 203° |
| 2026-05-04 05:23 | 38.29402 | 11.32847 | 33963 ft | 453 kts | 203° |
| 2026-05-04 05:23 | 38.26355 | 11.31783 | 33680 ft | 453 kts | 203° |
| 2026-05-04 05:24 | 38.23319 | 11.30726 | 33418 ft | 452 kts | 203° |
| 2026-05-04 05:24 | 38.20295 | 11.29676 | 33149 ft | 449 kts | 203° |
| 2026-05-04 05:24 | 38.17291 | 11.28635 | 32877 ft | 445 kts | 202° |
| 2026-05-04 05:24 | 38.14313 | 11.27602 | 32616 ft | 443 kts | 202° |
| 2026-05-04 05:25 | 38.11349 | 11.26574 | 32358 ft | 441 kts | 202° |
| 2026-05-04 05:25 | 38.08394 | 11.25548 | 32088 ft | 439 kts | 202° |
| 2026-05-04 05:25 | 38.05482 | 11.24537 | 31832 ft | 438 kts | 202° |
| 2026-05-04 05:25 | 38.02556 | 11.23522 | 31581 ft | 436 kts | 202° |
| 2026-05-04 05:26 | 37.99637 | 11.22511 | 31347 ft | 434 kts | 202° |
| 2026-05-04 05:26 | 37.96722 | 11.21503 | 31095 ft | 432 kts | 202° |
| 2026-05-04 05:26 | 37.93818 | 11.20499 | 30851 ft | 431 kts | 202° |
| 2026-05-04 05:26 | 37.90934 | 11.19504 | 30610 ft | 429 kts | 202° |
| 2026-05-04 05:27 | 37.88060 | 11.18512 | 30368 ft | 427 kts | 201° |
| 2026-05-04 05:28 | 37.68389 | 11.11519 | 27858 ft | 404 kts | 211° |
| 2026-05-04 05:29 | 37.66044 | 11.09727 | 27284 ft | 395 kts | 221° |
| 2026-05-04 05:29 | 37.63864 | 11.07649 | 26760 ft | 392 kts | 224° |
| 2026-05-04 05:29 | 37.61765 | 11.05465 | 26225 ft | 389 kts | 226° |
| 2026-05-04 05:29 | 37.59829 | 11.03065 | 25399 ft | 392 kts | 232° |
| 2026-05-04 05:31 | 37.47774 | 10.85184 | 19644 ft | 367 kts | 234° |
| 2026-05-04 05:31 | 37.46141 | 10.82735 | 18872 ft | 363 kts | 234° |
| 2026-05-04 05:32 | 37.44545 | 10.80342 | 18032 ft | 361 kts | 234° |
| 2026-05-04 05:32 | 37.42939 | 10.77937 | 17197 ft | 356 kts | 233° |
| 2026-05-04 05:32 | 37.41354 | 10.75564 | 16439 ft | 351 kts | 233° |
| 2026-05-04 05:33 | 37.38299 | 10.71002 | 15437 ft | 331 kts | 234° |
| 2026-05-04 05:33 | 37.36827 | 10.68800 | 14977 ft | 328 kts | 234° |
| 2026-05-04 05:33 | 37.35360 | 10.66608 | 14539 ft | 326 kts | 234° |
| 2026-05-04 05:33 | 37.33905 | 10.64435 | 14096 ft | 324 kts | 234° |
| 2026-05-04 05:34 | 37.32458 | 10.62278 | 13615 ft | 322 kts | 234° |
| 2026-05-04 05:34 | 37.31025 | 10.60142 | 13172 ft | 318 kts | 233° |
| 2026-05-04 05:34 | 37.29606 | 10.58028 | 12743 ft | 315 kts | 233° |
| 2026-05-04 05:34 | 37.28200 | 10.55936 | 12308 ft | 311 kts | 233° |
| 2026-05-04 05:35 | 37.26807 | 10.53864 | 11877 ft | 309 kts | 233° |
| 2026-05-04 05:35 | 37.25428 | 10.51815 | 11460 ft | 307 kts | 233° |
| 2026-05-04 05:35 | 37.24049 | 10.49765 | 11038 ft | 306 kts | 233° |
| 2026-05-04 05:35 | 37.22672 | 10.47722 | 10626 ft | 305 kts | 233° |
| 2026-05-04 05:36 | 37.21323 | 10.45721 | 10236 ft | 303 kts | 233° |
| 2026-05-04 05:36 | 37.19991 | 10.43749 | 10128 ft | 289 kts | 233° |
| 2026-05-04 05:36 | 37.18699 | 10.41837 | 9752 ft | 286 kts | 233° |
| 2026-05-04 05:36 | 37.17420 | 10.39942 | 9350 ft | 284 kts | 232° |
| 2026-05-04 05:37 | 37.16152 | 10.38065 | 8995 ft | 280 kts | 232° |
| 2026-05-04 05:37 | 37.14896 | 10.36205 | 8644 ft | 278 kts | 233° |
| 2026-05-04 05:37 | 37.13651 | 10.34365 | 8286 ft | 276 kts | 232° |
| 2026-05-04 05:38 | 37.11179 | 10.30712 | 7584 ft | 274 kts | 232° |
| 2026-05-04 05:38 | 37.09951 | 10.28899 | 7234 ft | 272 kts | 232° |
| 2026-05-04 05:38 | 37.08724 | 10.27090 | 6883 ft | 271 kts | 232° |
| 2026-05-04 05:38 | 37.07509 | 10.25299 | 6541 ft | 270 kts | 233° |
| 2026-05-04 05:39 | 37.06293 | 10.23508 | 6186 ft | 268 kts | 231° |
| 2026-05-04 05:39 | 37.03903 | 10.19985 | 5502 ft | 263 kts | 231° |
| 2026-05-04 05:39 | 37.02717 | 10.18240 | 5168 ft | 262 kts | 230° |
| 2026-05-04 05:40 | 37.00373 | 10.14794 | 4428 ft | 261 kts | 229° |
| 2026-05-04 05:40 | 36.99202 | 10.13076 | 4095 ft | 258 kts | 229° |
| 2026-05-04 05:40 | 36.98040 | 10.11370 | 3757 ft | 256 kts | 229° |
| 2026-05-04 05:41 | 36.96909 | 10.09711 | 3564 ft | 244 kts | 229° |
| 2026-05-04 05:41 | 36.95836 | 10.08150 | 3372 ft | 231 kts | 228° |
| 2026-05-04 05:41 | 36.94694 | 10.06849 | 3253 ft | 213 kts | 212° |
| 2026-05-04 05:41 | 36.93381 | 10.06157 | 3158 ft | 197 kts | 198° |
| 2026-05-04 05:42 | 36.92083 | 10.05844 | 3039 ft | 187 kts | 182° |
| 2026-05-04 05:42 | 36.90846 | 10.06147 | 2921 ft | 177 kts | 157° |
| 2026-05-04 05:42 | 36.89938 | 10.07092 | 2738 ft | 167 kts | 128° |
| 2026-05-04 05:42 | 36.89447 | 10.08363 | 2462 ft | 161 kts | 114° |
| 2026-05-04 05:43 | 36.89108 | 10.09708 | 2100 ft | 163 kts | 110° |
| 2026-05-04 05:43 | 36.88834 | 10.11003 | 1891 ft | 149 kts | 109° |
| 2026-05-04 05:43 | 36.88562 | 10.12197 | 1676 ft | 138 kts | 114° |
| 2026-05-04 05:45 | 36.86145 | 10.19662 | 455 ft | 127 kts | 112° |
| 2026-05-04 05:45 | 36.85805 | 10.20654 | 302 ft | 122 kts | 118° |
| 2026-05-04 05:47 | 36.84737 | 10.23186 | 33 ft | 22 kts | 291° |
| 2026-05-04 05:47 | 36.84806 | 10.22963 | 33 ft | 30 kts | 291° |
| 2026-05-04 05:47 | 36.84884 | 10.22723 | 33 ft | 29 kts | 293° |
| 2026-05-04 05:48 | 36.84964 | 10.22486 | 34 ft | 30 kts | 292° |
| 2026-05-04 05:48 | 36.84885 | 10.22309 | 33 ft | 23 kts | 251° |
| 2026-05-04 05:48 | 36.84896 | 10.22117 | 33 ft | 22 kts | 265° |
| 2026-05-04 05:48 | 36.84780 | 10.22028 | 33 ft | 21 kts | 192° |
| 2026-05-04 05:49 | 36.84734 | 10.21999 | 32 ft | 7 kts | 256° |
| 2026-05-04 05:49 | 36.84733 | 10.21923 | 33 ft | 8 kts | 226° |
| 2026-05-04 05:49 | 36.84683 | 10.21899 | 33 ft | 3 kts | 196° |
| 2026-05-04 05:49 | 36.84680 | 10.21898 | 33 ft | 0 kts | 196° |